Time;durP1;ratioP1;P1;durP2;ratioP2;P2;SDS_P1;SDS_P2;PMS_P1;PMS_P2;Temp;Humidity;BMP_temperature;BMP_pressure;BME280_temperature;BME280_humidity;BME280_pressure;Samples;Min_cycle;Max_cycle;Signal;HPM_P1;HPM_P2
2022/06/24 18:01:38;;;;;;;18.77;4.17;;;;;;;24.23;41.97;99330.69;1867960;73;22434;-63
2022/06/24 18:04:06;;;;;;;42.15;5.70;;;;;;;24.15;42.13;99334.19;1844945;75;20983;-61
2022/06/24 18:06:32;;;;;;;;;;;;;;;24.10;42.26;99337.86;1841222;75;22260;-61
2022/06/24 18:08:59;;;;;;;21.00;6.33;;;;;;;24.05;42.47;99346.36;1849233;75;20076;-61
2022/06/24 18:11:25;;;;;;;5.42;3.37;;;;;;;23.97;42.58;99344.20;1849469;75;20975;-60
2022/06/24 18:13:53;;;;;;;4.87;2.50;;;;;;;23.90;42.71;99343.55;1841022;75;21129;-60
2022/06/24 18:16:20;;;;;;;5.00;2.80;;;;;;;23.84;42.89;99346.88;1852308;75;21016;-60
2022/06/24 18:18:47;;;;;;;4.37;2.65;;;;;;;23.79;43.00;99348.38;1837497;75;21425;-60
2022/06/24 18:21:14;;;;;;;5.70;3.00;;;;;;;23.72;43.15;99338.03;1831860;75;20960;-60
2022/06/24 18:23:41;;;;;;;3.62;2.52;;;;;;;23.65;43.23;99339.18;1850420;75;21348;-60
2022/06/24 18:26:13;;;;;;;4.53;2.45;;;;;;;23.57;43.43;99336.51;1846139;75;21036;-60
2022/06/24 18:28:40;;;;;;;4.15;2.92;;;;;;;23.49;43.62;99341.83;1840086;75;21747;-61
2022/06/24 18:31:07;;;;;;;3.15;2.30;;;;;;;23.43;43.77;99338.81;1849588;75;21039;-61
2022/06/24 18:33:35;;;;;;;10.03;2.75;;;;;;;23.32;43.87;99343.13;1840839;75;21002;-61
2022/06/24 18:36:03;;;;;;;5.78;2.83;;;;;;;23.23;44.04;99350.77;1834792;75;20950;-61
2022/06/24 18:38:30;;;;;;;7.08;3.50;;;;;;;23.19;44.19;99342.76;1845244;75;21040;-61
2022/06/24 18:40:57;;;;;;;8.38;3.17;;;;;;;23.08;44.31;99346.58;1841791;75;24075;-61
2022/06/24 18:43:24;;;;;;;5.67;3.50;;;;;;;22.92;44.48;99347.32;1848230;75;21059;-61
2022/06/24 18:45:52;;;;;;;6.67;3.42;;;;;;;22.80;44.72;99345.95;1839986;75;20991;-62
2022/06/24 18:48:19;;;;;;;7.00;4.03;;;;;;;22.64;44.86;99346.70;1852221;75;20927;-61
2022/06/24 18:50:49;;;;;;;9.98;3.72;;;;;;;22.47;45.01;99355.09;1846570;75;21052;-61
2022/06/24 18:53:15;;;;;;;4.53;3.80;;;;;;;22.32;45.21;99356.65;1837657;75;21593;-61
2022/06/24 18:55:42;;;;;;;6.42;3.90;;;;;;;22.21;45.48;99363.56;1848033;75;21437;-60
2022/06/24 18:58:09;;;;;;;7.03;4.17;;;;;;;22.12;45.62;99370.15;1843873;75;20969;-61
2022/06/24 19:00:36;;;;;;;9.43;3.60;;;;;;;22.02;45.84;99372.05;1852546;75;21023;-61
2022/06/24 19:03:04;;;;;;;8.13;3.50;;;;;;;21.91;45.96;99364.33;1867582;75;21027;-61
2022/06/24 19:05:32;;;;;;;5.33;3.50;;;;;;;21.82;46.14;99365.25;1873577;75;21061;-61
2022/06/24 19:07:59;;;;;;;5.70;3.00;;;;;;;21.74;46.35;99366.51;1862594;75;21328;-60
2022/06/24 19:10:25;;;;;;;5.50;2.83;;;;;;;21.71;46.58;99365.48;1864954;75;22453;-62
2022/06/24 19:13:14;;;;;;;4.05;3.08;;;;;;;21.62;46.74;99373.38;1862770;75;20938;-62
2022/06/24 19:16:03;;;;;;;6.65;3.10;;;;;;;21.53;47.08;99368.95;1831533;75;22780;-62
2022/06/24 19:21:17;;;;;;;5.47;3.55;;;;;;;21.26;47.32;99371.62;1815380;78;21951;-61
2022/06/24 19:23:44;;;;;;;7.08;3.70;;;;;;;21.13;47.49;99374.16;1814196;78;22258;-61
2022/06/24 19:26:11;;;;;;;5.33;3.58;;;;;;;21.06;47.63;99373.09;1809275;78;21001;-61
2022/06/24 19:28:39;;;;;;;6.83;3.60;;;;;;;20.99;47.83;99381.29;1818084;77;21001;-61
2022/06/24 19:31:05;;;;;;;7.45;3.40;;;;;;;20.97;47.93;99385.90;1812130;78;21036;-61
2022/06/24 19:33:32;;;;;;;10.45;4.15;;;;;;;20.92;48.15;99382.84;1815603;78;21098;-62
2022/06/24 19:35:59;;;;;;;8.30;4.17;;;;;;;20.87;48.26;99387.78;1814073;78;20980;-61
2022/06/24 19:38:26;;;;;;;11.70;4.92;;;;;;;20.83;48.38;99391.69;1814125;78;21099;-61
2022/06/24 19:40:54;;;;;;;11.28;5.50;;;;;;;20.79;48.57;99391.98;1813199;76;21553;-62
2022/06/24 19:43:21;;;;;;;14.38;5.55;;;;;;;20.75;48.77;99386.64;1814430;78;22332;-61
2022/06/24 19:45:49;;;;;;;23.77;5.75;;;;;;;20.69;48.86;99396.48;1811401;78;21090;-62
2022/06/24 19:48:16;;;;;;;14.68;6.50;;;;;;;20.63;48.98;99394.91;1812229;78;21526;-62
2022/06/24 19:50:43;;;;;;;19.17;6.83;;;;;;;20.55;49.19;99394.30;1820743;78;21043;-62
2022/06/24 19:53:10;;;;;;;15.15;7.00;;;;;;;20.50;49.37;99393.86;1813061;78;21091;-61
2022/06/24 19:55:37;;;;;;;9.35;5.85;;;;;;;20.45;49.54;99393.48;1815080;78;21032;-60
2022/06/24 19:58:04;;;;;;;;;;;;;;;20.35;49.77;99394.81;1814615;78;21355;-63
2022/06/24 20:00:32;;;;;;;9.88;4.92;;;;;;;20.21;50.17;99397.42;1820048;78;20144;-62
2022/06/24 20:05:52;;;;;;;;;;;;;;;20.00;50.40;99396.77;1815883;78;21251;-63
2022/06/24 20:08:30;;;;;;;6.30;4.97;;;;;;;19.83;50.96;99391.19;1813170;78;20179;-62
2022/06/24 20:11:01;;;;;;;13.13;5.85;;;;;;;19.65;51.03;99392.81;1813979;78;21079;-62
2022/06/24 20:13:28;;;;;;;10.30;5.60;;;;;;;19.51;51.31;99390.58;1818514;78;21073;-62
2022/06/24 20:15:55;;;;;;;11.73;5.45;;;;;;;19.35;51.61;99390.64;1799816;78;21606;-62
2022/06/24 20:18:23;;;;;;;;;;;;;;;19.24;51.90;99394.72;1806703;78;21070;-62
2022/06/24 20:20:50;;;;;;;9.93;5.58;;;;;;;19.12;52.41;99401.08;1783634;78;20188;-62
2022/06/24 20:23:26;;;;;;;13.50;5.45;;;;;;;19.00;52.44;99393.25;1800007;78;21122;-62
2022/06/24 20:25:52;;;;;;;10.65;5.30;;;;;;;18.93;52.59;99395.23;1797254;78;20979;-62
2022/06/24 20:28:19;;;;;;;9.20;5.17;;;;;;;18.86;52.95;99393.61;1800318;78;20991;-62
2022/06/24 20:30:46;;;;;;;9.98;5.42;;;;;;;18.80;53.20;99399.44;1804470;78;20981;-62
2022/06/24 20:33:13;;;;;;;7.42;5.35;;;;;;;18.75;53.50;99401.64;1798312;78;20993;-62
2022/06/24 20:35:41;;;;;;;8.20;5.25;;;;;;;18.71;53.74;99400.22;1795547;78;21433;-62
2022/06/24 20:38:08;;;;;;;10.23;5.62;;;;;;;18.63;54.15;99389.45;1804639;78;21018;-62
2022/06/24 20:40:34;;;;;;;15.03;5.80;;;;;;;18.69;54.33;99410.08;1796933;78;21591;-62
2022/06/24 20:43:01;;;;;;;9.73;5.42;;;;;;;18.66;54.48;99405.89;1808227;78;20973;-62
2022/06/24 20:45:30;;;;;;;15.30;5.22;;;;;;;18.67;54.72;99412.01;1796424;78;21073;-62
2022/06/24 20:47:57;;;;;;;5.90;4.70;;;;;;;18.67;54.95;99410.69;1796627;78;22592;-62
2022/06/24 20:50:24;;;;;;;6.55;4.80;;;;;;;18.70;55.37;99405.13;1801406;78;21042;-62
2022/06/24 20:52:51;;;;;;;5.35;4.80;;;;;;;18.72;55.71;99411.13;1799892;78;20944;-62
2022/06/24 20:55:18;;;;;;;6.30;4.72;;;;;;;18.72;55.72;99407.16;1800805;78;21559;-62
2022/06/24 20:57:44;;;;;;;8.60;4.65;;;;;;;18.71;56.09;99407.66;1802099;78;20961;-63
2022/06/24 21:00:13;;;;;;;6.10;4.53;;;;;;;18.76;56.13;99409.91;1805136;78;20982;-61
2022/06/24 21:02:39;;;;;;;7.83;4.17;;;;;;;18.78;56.39;99401.38;1794656;78;20996;-62
2022/06/24 21:05:09;;;;;;;10.00;4.83;;;;;;;18.79;56.79;99401.72;1798777;78;21470;-61
2022/06/24 21:07:35;;;;;;;6.05;4.67;;;;;;;18.80;56.91;99410.02;1797860;78;20963;-62
2022/06/24 21:10:05;;;;;;;5.37;4.87;;;;;;;18.82;57.10;99405.45;1797131;78;21003;-62
2022/06/24 21:12:33;;;;;;;5.90;4.60;;;;;;;18.86;57.24;99408.16;1806154;78;21099;-62
2022/06/24 21:15:00;;;;;;;8.15;4.85;;;;;;;18.88;57.54;99408.88;1800649;78;21677;-62
2022/06/24 21:17:28;;;;;;;5.22;4.30;;;;;;;18.87;57.58;99403.70;1797780;78;21618;-61
2022/06/24 21:19:55;;;;;;;8.88;3.70;;;;;;;18.85;57.77;99405.17;1797796;78;21053;-61
2022/06/24 21:22:21;;;;;;;9.20;4.25;;;;;;;18.89;58.04;99402.60;1796069;77;20993;-62
2022/06/24 21:24:48;;;;;;;7.75;4.53;;;;;;;18.96;58.03;99399.79;1794766;78;22019;-62
2022/06/24 21:27:15;;;;;;;8.43;4.42;;;;;;;18.98;58.23;99404.44;1796572;78;21073;-62
2022/06/24 21:29:42;;;;;;;;;;;;;;;18.99;58.41;99404.81;1801473;78;21018;-62
2022/06/24 21:32:09;;;;;;;7.28;3.72;;;;;;;18.98;58.77;99395.17;1796564;78;20513;-61
2022/06/24 21:34:35;;;;;;;5.05;4.00;;;;;;;18.93;58.52;99397.41;1796968;78;21055;-62
2022/06/24 21:37:03;;;;;;;9.25;4.22;;;;;;;18.92;58.76;99398.36;1795397;78;21112;-62
2022/06/24 21:39:30;;;;;;;7.00;4.17;;;;;;;18.92;58.94;99393.08;1798123;78;21128;-62
2022/06/24 21:41:57;;;;;;;8.13;4.78;;;;;;;18.90;58.90;99387.07;1799086;78;21518;-61
2022/06/24 21:44:24;;;;;;;5.40;3.83;;;;;;;18.86;59.12;99390.97;1801294;78;21535;-62
2022/06/24 21:46:50;;;;;;;9.83;3.92;;;;;;;18.84;59.21;99387.61;1795832;78;21664;-62
2022/06/24 21:49:17;;;;;;;5.80;3.83;;;;;;;18.80;59.20;99384.89;1799498;78;21400;-59
2022/06/24 21:51:44;;;;;;;8.58;3.40;;;;;;;18.75;59.40;99373.88;1794812;78;20951;-59
2022/06/24 21:54:11;;;;;;;4.92;3.65;;;;;;;18.73;59.63;99377.09;1796310;78;21061;-59
2022/06/24 21:56:37;;;;;;;7.62;3.87;;;;;;;18.62;59.71;99353.39;1795673;78;21022;-59
2022/06/24 21:59:04;;;;;;;7.22;3.20;;;;;;;18.62;59.71;99353.39;1798839;78;21048;-59
2022/06/24 22:01:33;;;;;;;4.85;3.60;;;;;;;18.70;59.84;99377.36;1799680;78;21421;-59
2022/06/24 22:03:59;;;;;;;6.30;3.58;;;;;;;18.67;59.93;99378.46;1804271;78;20980;-59
2022/06/24 22:06:26;;;;;;;5.28;3.52;;;;;;;18.63;59.96;99384.17;1793551;78;21072;-59
2022/06/24 22:08:52;;;;;;;5.50;3.80;;;;;;;18.62;60.22;99382.47;1795876;78;21049;-59
2022/06/24 22:11:19;;;;;;;5.83;3.65;;;;;;;18.61;60.12;99380.81;1800114;78;21052;-59
2022/06/24 22:13:46;;;;;;;5.62;3.65;;;;;;;18.61;60.26;99384.77;1798169;78;21406;-59
2022/06/24 22:16:14;;;;;;;4.78;3.83;;;;;;;18.59;60.34;99388.03;1795635;78;21212;-60
2022/06/24 22:18:41;;;;;;;7.67;4.20;;;;;;;18.56;60.44;99384.67;1804822;78;21487;-59
2022/06/24 22:21:08;;;;;;;;;;;;;;;18.56;60.57;99388.64;1801676;78;20998;-59
2022/06/24 22:23:34;;;;;;;8.70;3.85;;;;;;;18.60;60.80;99390.55;1796586;78;20139;-59
2022/06/24 22:26:01;;;;;;;7.35;3.25;;;;;;;18.67;60.73;99389.04;1795099;78;21041;-59
2022/06/24 22:28:28;;;;;;;4.90;3.75;;;;;;;18.69;60.73;99388.92;1797029;78;21026;-59
2022/06/24 22:30:55;;;;;;;9.13;3.40;;;;;;;18.68;60.79;99389.88;1793984;78;21030;-60
2022/06/24 22:33:21;;;;;;;5.97;3.60;;;;;;;18.67;60.75;99388.21;1793901;78;21060;-59
2022/06/24 22:35:48;;;;;;;3.35;3.05;;;;;;;18.68;60.78;99388.55;1799902;78;20963;-59
2022/06/24 22:38:15;;;;;;;5.75;3.80;;;;;;;18.69;60.83;99391.56;1796879;78;21555;-60
2022/06/24 22:40:42;;;;;;;5.55;3.47;;;;;;;18.68;60.87;99397.80;1796194;78;21006;-60
2022/06/24 22:43:09;;;;;;;5.35;3.60;;;;;;;18.62;60.88;99395.69;1796675;78;25136;-60
2022/06/24 22:45:36;;;;;;;4.87;3.08;;;;;;;18.60;61.02;99396.30;1792900;78;21056;-60
2022/06/24 22:48:04;;;;;;;5.20;3.35;;;;;;;18.59;61.04;99407.86;1796751;78;20974;-59
2022/06/24 22:50:31;;;;;;;6.78;3.55;;;;;;;18.64;61.19;99409.62;1801448;78;21274;-59
2022/06/24 22:52:57;;;;;;;3.30;3.00;;;;;;;18.66;61.08;99405.05;1798382;78;21321;-60
2022/06/24 22:55:24;;;;;;;4.17;3.33;;;;;;;18.66;61.01;99415.63;1797953;78;21135;-60
2022/06/24 22:57:51;;;;;;;5.22;3.80;;;;;;;18.63;60.94;99415.90;1796872;78;21532;-59
2022/06/24 23:00:17;;;;;;;4.80;3.60;;;;;;;18.62;60.97;99414.20;1798945;78;21096;-60
2022/06/24 23:02:44;;;;;;;4.80;3.00;;;;;;;18.60;60.94;99417.45;1799627;78;21066;-59
2022/06/24 23:05:11;;;;;;;5.05;3.40;;;;;;;18.58;61.00;99418.09;1801373;78;20929;-60
2022/06/24 23:07:38;;;;;;;4.28;3.02;;;;;;;18.47;61.11;99417.19;1794043;78;20916;-59
2022/06/24 23:10:06;;;;;;;4.30;3.00;;;;;;;18.39;61.25;99415.67;1795413;78;21049;-59
2022/06/24 23:12:34;;;;;;;6.78;3.45;;;;;;;18.34;61.25;99420.51;1793561;78;20974;-59
2022/06/24 23:15:00;;;;;;;6.80;3.42;;;;;;;18.32;61.31;99425.11;1799532;78;21428;-60
2022/06/24 23:17:27;;;;;;;5.25;3.67;;;;;;;18.23;61.32;99421.89;1814891;77;20942;-59
2022/06/24 23:19:54;;;;;;;4.37;3.50;;;;;;;18.14;61.48;99418.70;1812119;78;21653;-59
2022/06/24 23:22:21;;;;;;;4.40;3.50;;;;;;;18.05;61.50;99419.83;1815050;78;22335;-59
2022/06/24 23:24:47;;;;;;;5.62;3.52;;;;;;;17.99;61.66;99419.02;1815389;78;21111;-59
2022/06/24 23:27:15;;;;;;;8.03;3.60;;;;;;;17.96;61.71;99427.20;1807523;78;21066;-59
2022/06/24 23:29:42;;;;;;;4.00;3.40;;;;;;;17.86;61.75;99426.27;1808997;78;20961;-59
2022/06/24 23:32:08;;;;;;;3.92;3.05;;;;;;;17.77;61.94;99429.16;1810261;78;20922;-59
2022/06/24 23:34:35;;;;;;;4.17;3.50;;;;;;;17.70;61.90;99432.41;1809645;78;21685;-60
2022/06/24 23:37:02;;;;;;;5.10;3.92;;;;;;;17.61;62.00;99426.92;1781068;79;21475;-60
2022/06/24 23:39:28;;;;;;;4.65;3.80;;;;;;;17.55;62.23;99427.42;1775572;79;21962;-59
2022/06/24 23:41:55;;;;;;;7.45;3.77;;;;;;;17.50;62.24;99426.95;1764420;81;21006;-59
2022/06/24 23:44:21;;;;;;;5.37;3.95;;;;;;;17.50;62.28;99426.95;1762105;79;21081;-59
2022/06/24 23:46:48;;;;;;;5.47;3.83;;;;;;;17.47;62.39;99424.56;1758433;80;21554;-59
2022/06/24 23:52:00;;;;;;;6.65;3.70;;;;;;;17.43;62.49;99428.42;1767586;79;21127;-59
2022/06/24 23:54:27;;;;;;;6.55;4.00;;;;;;;17.37;62.55;99428.92;1758627;81;21585;-59
2022/06/24 23:56:54;;;;;;;8.15;4.22;;;;;;;17.19;62.78;99421.48;1776102;79;21041;-59
2022/06/24 23:59:21;;;;;;;9.18;3.87;;;;;;;17.07;62.99;99427.74;1772685;79;22200;-60
